sensor_id;sensor_type;location;lat;lon;timestamp;temperature;humidity
1570;DHT22;778;50.120;8.698;2023-10-13T00:01:25;17.50;99.90
1570;DHT22;778;50.120;8.698;2023-10-13T00:03:54;17.50;99.90
1570;DHT22;778;50.120;8.698;2023-10-13T00:06:23;17.50;99.90
1570;DHT22;778;50.120;8.698;2023-10-13T00:08:53;17.50;99.90
1570;DHT22;778;50.120;8.698;2023-10-13T00:11:22;17.40;99.90
1570;DHT22;778;50.120;8.698;2023-10-13T00:13:53;17.40;99.90
1570;DHT22;778;50.120;8.698;2023-10-13T00:16:22;17.40;99.90
1570;DHT22;778;50.120;8.698;2023-10-13T00:18:55;17.40;99.90
1570;DHT22;778;50.120;8.698;2023-10-13T00:21:24;17.40;99.90
1570;DHT22;778;50.120;8.698;2023-10-13T00:24:00;17.30;99.90
1570;DHT22;778;50.120;8.698;2023-10-13T00:26:33;17.30;99.90
1570;DHT22;778;50.120;8.698;2023-10-13T00:29:03;17.30;99.90
1570;DHT22;778;50.120;8.698;2023-10-13T00:31:43;17.20;99.90
1570;DHT22;778;50.120;8.698;2023-10-13T00:34:17;17.20;99.90
1570;DHT22;778;50.120;8.698;2023-10-13T00:36:52;17.10;99.90
1570;DHT22;778;50.120;8.698;2023-10-13T00:39:35;17.10;99.90
1570;DHT22;778;50.120;8.698;2023-10-13T00:42:04;17.00;99.90
1570;DHT22;778;50.120;8.698;2023-10-13T00:44:35;17.00;99.90
1570;DHT22;778;50.120;8.698;2023-10-13T00:47:05;17.00;99.90
1570;DHT22;778;50.120;8.698;2023-10-13T00:49:38;17.10;99.90
1570;DHT22;778;50.120;8.698;2023-10-13T00:52:07;17.10;99.90
1570;DHT22;778;50.120;8.698;2023-10-13T00:54:38;17.10;99.90
1570;DHT22;778;50.120;8.698;2023-10-13T00:57:06;17.10;99.90
1570;DHT22;778;50.120;8.698;2023-10-13T00:59:39;17.10;99.90
1570;DHT22;778;50.120;8.698;2023-10-13T01:02:13;17.10;99.90
1570;DHT22;778;50.120;8.698;2023-10-13T01:05:07;17.10;99.90
1570;DHT22;778;50.120;8.698;2023-10-13T01:07:37;17.10;99.90
1570;DHT22;778;50.120;8.698;2023-10-13T01:10:09;17.00;99.90
1570;DHT22;778;50.120;8.698;2023-10-13T01:12:40;17.00;99.90
1570;DHT22;778;50.120;8.698;2023-10-13T01:15:11;17.00;99.90
1570;DHT22;778;50.120;8.698;2023-10-13T01:17:43;16.90;99.90
1570;DHT22;778;50.120;8.698;2023-10-13T01:20:14;17.00;99.90
1570;DHT22;778;50.120;8.698;2023-10-13T01:22:51;17.00;99.90
1570;DHT22;778;50.120;8.698;2023-10-13T01:25:24;17.10;99.90
1570;DHT22;778;50.120;8.698;2023-10-13T01:27:56;17.00;99.90
1570;DHT22;778;50.120;8.698;2023-10-13T01:30:24;17.00;99.90
1570;DHT22;778;50.120;8.698;2023-10-13T01:32:53;17.10;99.90
1570;DHT22;778;50.120;8.698;2023-10-13T01:35:21;17.10;99.90
1570;DHT22;778;50.120;8.698;2023-10-13T01:37:53;17.10;99.90
1570;DHT22;778;50.120;8.698;2023-10-13T01:40:20;17.10;99.90
1570;DHT22;778;50.120;8.698;2023-10-13T01:42:57;17.10;99.90
1570;DHT22;778;50.120;8.698;2023-10-13T01:45:25;17.10;99.90
1570;DHT22;778;50.120;8.698;2023-10-13T01:47:56;17.10;99.90
1570;DHT22;778;50.120;8.698;2023-10-13T01:50:25;17.10;99.90
1570;DHT22;778;50.120;8.698;2023-10-13T01:52:56;17.10;99.90
1570;DHT22;778;50.120;8.698;2023-10-13T01:55:39;17.10;99.90
1570;DHT22;778;50.120;8.698;2023-10-13T01:58:12;17.10;99.90
1570;DHT22;778;50.120;8.698;2023-10-13T02:00:50;17.10;99.90
1570;DHT22;778;50.120;8.698;2023-10-13T02:03:17;17.10;99.90
1570;DHT22;778;50.120;8.698;2023-10-13T02:05:49;17.10;99.90
1570;DHT22;778;50.120;8.698;2023-10-13T02:08:21;17.10;99.90
1570;DHT22;778;50.120;8.698;2023-10-13T02:10:54;17.20;99.90
1570;DHT22;778;50.120;8.698;2023-10-13T02:13:25;17.20;99.90
1570;DHT22;778;50.120;8.698;2023-10-13T02:15:56;17.20;99.90
1570;DHT22;778;50.120;8.698;2023-10-13T02:18:25;17.20;99.90
1570;DHT22;778;50.120;8.698;2023-10-13T02:21:03;17.30;99.90
1570;DHT22;778;50.120;8.698;2023-10-13T02:23:31;17.20;99.90
1570;DHT22;778;50.120;8.698;2023-10-13T02:26:00;17.20;99.90
1570;DHT22;778;50.120;8.698;2023-10-13T02:28:30;17.20;99.90
1570;DHT22;778;50.120;8.698;2023-10-13T02:31:02;17.20;99.90
1570;DHT22;778;50.120;8.698;2023-10-13T02:33:30;17.20;99.90
1570;DHT22;778;50.120;8.698;2023-10-13T02:36:00;17.20;99.90
1570;DHT22;778;50.120;8.698;2023-10-13T02:38:32;17.20;99.90
1570;DHT22;778;50.120;8.698;2023-10-13T02:41:11;17.20;99.90
1570;DHT22;778;50.120;8.698;2023-10-13T02:43:40;17.10;99.90
1570;DHT22;778;50.120;8.698;2023-10-13T02:46:10;17.10;99.90
1570;DHT22;778;50.120;8.698;2023-10-13T02:48:38;17.10;99.90
1570;DHT22;778;50.120;8.698;2023-10-13T02:51:09;17.00;99.90
1570;DHT22;778;50.120;8.698;2023-10-13T02:53:43;17.00;99.90
1570;DHT22;778;50.120;8.698;2023-10-13T02:56:14;17.00;99.90
1570;DHT22;778;50.120;8.698;2023-10-13T02:58:50;16.90;99.90
1570;DHT22;778;50.120;8.698;2023-10-13T03:01:23;16.90;99.90
1570;DHT22;778;50.120;8.698;2023-10-13T03:03:55;16.90;99.90
1570;DHT22;778;50.120;8.698;2023-10-13T03:06:27;17.00;99.90
1570;DHT22;778;50.120;8.698;2023-10-13T03:09:00;17.00;99.90
1570;DHT22;778;50.120;8.698;2023-10-13T03:11:41;17.00;99.90
1570;DHT22;778;50.120;8.698;2023-10-13T03:14:10;17.00;99.90
1570;DHT22;778;50.120;8.698;2023-10-13T03:16:52;17.00;99.90
1570;DHT22;778;50.120;8.698;2023-10-13T03:19:20;17.00;99.90
1570;DHT22;778;50.120;8.698;2023-10-13T03:21:49;17.00;99.90
1570;DHT22;778;50.120;8.698;2023-10-13T03:24:22;16.90;99.90
1570;DHT22;778;50.120;8.698;2023-10-13T03:27:00;17.00;99.90
1570;DHT22;778;50.120;8.698;2023-10-13T03:29:38;17.00;99.90
1570;DHT22;778;50.120;8.698;2023-10-13T03:32:10;17.00;99.90
1570;DHT22;778;50.120;8.698;2023-10-13T03:34:42;17.00;99.90
1570;DHT22;778;50.120;8.698;2023-10-13T03:37:34;17.10;99.90
1570;DHT22;778;50.120;8.698;2023-10-13T03:40:07;17.10;99.90
1570;DHT22;778;50.120;8.698;2023-10-13T03:42:58;17.00;99.90
1570;DHT22;778;50.120;8.698;2023-10-13T03:45:34;17.00;99.90
1570;DHT22;778;50.120;8.698;2023-10-13T03:48:07;16.90;99.90
1570;DHT22;778;50.120;8.698;2023-10-13T03:50:57;16.90;99.90
1570;DHT22;778;50.120;8.698;2023-10-13T03:53:30;16.90;99.90
1570;DHT22;778;50.120;8.698;2023-10-13T03:56:03;16.90;99.90
1570;DHT22;778;50.120;8.698;2023-10-13T03:58:41;16.90;99.90
1570;DHT22;778;50.120;8.698;2023-10-13T04:01:15;16.90;99.90
1570;DHT22;778;50.120;8.698;2023-10-13T04:03:44;16.90;99.90
1570;DHT22;778;50.120;8.698;2023-10-13T04:06:30;16.90;99.90
1570;DHT22;778;50.120;8.698;2023-10-13T04:09:26;16.90;99.90
1570;DHT22;778;50.120;8.698;2023-10-13T04:12:12;16.90;99.90
1570;DHT22;778;50.120;8.698;2023-10-13T04:15:10;17.00;99.90
1570;DHT22;778;50.120;8.698;2023-10-13T04:17:51;17.00;99.90
1570;DHT22;778;50.120;8.698;2023-10-13T04:20:20;16.90;99.90
1570;DHT22;778;50.120;8.698;2023-10-13T04:23:00;16.90;99.90
1570;DHT22;778;50.120;8.698;2023-10-13T04:25:52;16.90;99.90
1570;DHT22;778;50.120;8.698;2023-10-13T04:28:34;17.10;99.90
1570;DHT22;778;50.120;8.698;2023-10-13T04:31:17;17.10;99.90
1570;DHT22;778;50.120;8.698;2023-10-13T04:34:05;17.10;99.90
1570;DHT22;778;50.120;8.698;2023-10-13T04:36:44;17.10;99.90
1570;DHT22;778;50.120;8.698;2023-10-13T04:39:13;17.00;99.90
1570;DHT22;778;50.120;8.698;2023-10-13T04:41:56;17.00;99.90
1570;DHT22;778;50.120;8.698;2023-10-13T04:44:34;17.10;99.90
1570;DHT22;778;50.120;8.698;2023-10-13T04:47:19;17.00;99.90
1570;DHT22;778;50.120;8.698;2023-10-13T04:49:51;17.00;99.90
1570;DHT22;778;50.120;8.698;2023-10-13T04:52:27;17.10;99.90
1570;DHT22;778;50.120;8.698;2023-10-13T04:55:28;17.10;99.90
1570;DHT22;778;50.120;8.698;2023-10-13T04:58:13;17.00;99.90
1570;DHT22;778;50.120;8.698;2023-10-13T05:01:13;17.00;99.90
1570;DHT22;778;50.120;8.698;2023-10-13T05:04:26;17.10;99.90
1570;DHT22;778;50.120;8.698;2023-10-13T05:07:27;17.10;99.90
1570;DHT22;778;50.120;8.698;2023-10-13T05:10:14;17.10;99.90
1570;DHT22;778;50.120;8.698;2023-10-13T05:13:00;17.00;99.90
1570;DHT22;778;50.120;8.698;2023-10-13T05:15:54;17.00;99.90
1570;DHT22;778;50.120;8.698;2023-10-13T05:18:40;17.10;99.90
1570;DHT22;778;50.120;8.698;2023-10-13T05:21:26;17.00;99.90
1570;DHT22;778;50.120;8.698;2023-10-13T05:24:13;17.00;99.90
1570;DHT22;778;50.120;8.698;2023-10-13T05:26:59;17.00;99.90
1570;DHT22;778;50.120;8.698;2023-10-13T05:29:46;17.00;99.90
1570;DHT22;778;50.120;8.698;2023-10-13T05:32:33;17.00;99.90
1570;DHT22;778;50.120;8.698;2023-10-13T05:35:20;17.00;99.90
1570;DHT22;778;50.120;8.698;2023-10-13T05:38:06;17.00;99.90
1570;DHT22;778;50.120;8.698;2023-10-13T05:40:55;17.00;99.90
1570;DHT22;778;50.120;8.698;2023-10-13T05:43:48;17.00;99.90
1570;DHT22;778;50.120;8.698;2023-10-13T05:46:34;17.00;99.90
1570;DHT22;778;50.120;8.698;2023-10-13T05:49:28;17.00;99.90
1570;DHT22;778;50.120;8.698;2023-10-13T05:52:17;17.00;99.90
1570;DHT22;778;50.120;8.698;2023-10-13T05:55:11;17.00;99.90
1570;DHT22;778;50.120;8.698;2023-10-13T05:57:59;17.10;99.90
1570;DHT22;778;50.120;8.698;2023-10-13T06:00:45;17.10;99.90
1570;DHT22;778;50.120;8.698;2023-10-13T06:03:31;17.10;99.90
1570;DHT22;778;50.120;8.698;2023-10-13T06:06:16;17.10;99.90
1570;DHT22;778;50.120;8.698;2023-10-13T06:09:02;17.10;99.90
1570;DHT22;778;50.120;8.698;2023-10-13T06:11:48;17.20;99.90
1570;DHT22;778;50.120;8.698;2023-10-13T06:14:36;17.10;99.90
1570;DHT22;778;50.120;8.698;2023-10-13T06:17:22;17.20;99.90
1570;DHT22;778;50.120;8.698;2023-10-13T06:20:09;17.20;99.90
1570;DHT22;778;50.120;8.698;2023-10-13T06:23:07;17.30;99.90
1570;DHT22;778;50.120;8.698;2023-10-13T06:25:53;17.30;99.90
1570;DHT22;778;50.120;8.698;2023-10-13T06:28:39;17.30;99.90
1570;DHT22;778;50.120;8.698;2023-10-13T06:31:14;17.30;99.90
1570;DHT22;778;50.120;8.698;2023-10-13T06:33:50;17.40;99.90
1570;DHT22;778;50.120;8.698;2023-10-13T06:36:18;17.40;99.90
1570;DHT22;778;50.120;8.698;2023-10-13T06:38:48;17.50;99.90
1570;DHT22;778;50.120;8.698;2023-10-13T06:41:43;17.50;99.90
1570;DHT22;778;50.120;8.698;2023-10-13T06:44:13;17.50;99.90
1570;DHT22;778;50.120;8.698;2023-10-13T06:46:44;17.60;99.90
1570;DHT22;778;50.120;8.698;2023-10-13T06:49:13;17.70;99.90
1570;DHT22;778;50.120;8.698;2023-10-13T06:51:41;17.70;99.90
1570;DHT22;778;50.120;8.698;2023-10-13T06:54:10;17.80;99.90
1570;DHT22;778;50.120;8.698;2023-10-13T06:56:47;17.80;99.90
1570;DHT22;778;50.120;8.698;2023-10-13T06:59:19;17.80;99.90
1570;DHT22;778;50.120;8.698;2023-10-13T07:01:55;17.80;99.90
1570;DHT22;778;50.120;8.698;2023-10-13T07:04:50;17.90;99.90
1570;DHT22;778;50.120;8.698;2023-10-13T07:07:24;17.90;99.90
1570;DHT22;778;50.120;8.698;2023-10-13T07:09:52;18.00;99.90
1570;DHT22;778;50.120;8.698;2023-10-13T07:12:25;18.00;99.90
1570;DHT22;778;50.120;8.698;2023-10-13T07:14:54;18.00;99.90
1570;DHT22;778;50.120;8.698;2023-10-13T07:17:39;18.00;99.90
1570;DHT22;778;50.120;8.698;2023-10-13T07:20:11;18.10;99.90
1570;DHT22;778;50.120;8.698;2023-10-13T07:22:50;18.10;99.90
1570;DHT22;778;50.120;8.698;2023-10-13T07:25:29;18.10;99.90
1570;DHT22;778;50.120;8.698;2023-10-13T07:27:59;18.20;99.90
1570;DHT22;778;50.120;8.698;2023-10-13T07:30:30;18.20;99.90
1570;DHT22;778;50.120;8.698;2023-10-13T07:33:07;18.20;99.90
1570;DHT22;778;50.120;8.698;2023-10-13T07:35:40;18.20;99.90
1570;DHT22;778;50.120;8.698;2023-10-13T07:38:08;18.20;99.90
1570;DHT22;778;50.120;8.698;2023-10-13T07:40:37;18.20;99.90
1570;DHT22;778;50.120;8.698;2023-10-13T07:43:07;18.20;99.90
1570;DHT22;778;50.120;8.698;2023-10-13T07:45:40;18.20;99.90
1570;DHT22;778;50.120;8.698;2023-10-13T07:48:11;18.30;99.90
1570;DHT22;778;50.120;8.698;2023-10-13T07:50:46;18.40;99.90
1570;DHT22;778;50.120;8.698;2023-10-13T07:53:16;18.50;99.90
1570;DHT22;778;50.120;8.698;2023-10-13T07:55:50;18.60;99.90
1570;DHT22;778;50.120;8.698;2023-10-13T07:58:23;18.70;99.90
1570;DHT22;778;50.120;8.698;2023-10-13T08:00:53;18.70;99.90
1570;DHT22;778;50.120;8.698;2023-10-13T08:03:36;18.80;99.90
1570;DHT22;778;50.120;8.698;2023-10-13T08:06:14;19.10;99.90
1570;DHT22;778;50.120;8.698;2023-10-13T08:08:55;19.40;99.90
1570;DHT22;778;50.120;8.698;2023-10-13T08:11:34;19.60;99.90
1570;DHT22;778;50.120;8.698;2023-10-13T08:14:05;19.60;99.90
1570;DHT22;778;50.120;8.698;2023-10-13T08:17:06;19.80;99.90
1570;DHT22;778;50.120;8.698;2023-10-13T08:19:38;20.00;99.90
1570;DHT22;778;50.120;8.698;2023-10-13T08:22:13;20.10;99.90
1570;DHT22;778;50.120;8.698;2023-10-13T08:25:03;20.30;99.90
1570;DHT22;778;50.120;8.698;2023-10-13T08:28:11;20.30;99.90
1570;DHT22;778;50.120;8.698;2023-10-13T08:31:09;20.70;99.90
1570;DHT22;778;50.120;8.698;2023-10-13T08:33:49;21.60;99.90
1570;DHT22;778;50.120;8.698;2023-10-13T08:36:19;21.50;99.90
1570;DHT22;778;50.120;8.698;2023-10-13T08:38:57;22.00;99.90
1570;DHT22;778;50.120;8.698;2023-10-13T08:41:44;22.50;99.90
1570;DHT22;778;50.120;8.698;2023-10-13T08:44:28;22.90;99.90
1570;DHT22;778;50.120;8.698;2023-10-13T08:47:12;22.30;99.90
1570;DHT22;778;50.120;8.698;2023-10-13T08:49:46;22.00;99.90
1570;DHT22;778;50.120;8.698;2023-10-13T08:52:21;21.90;99.90
1570;DHT22;778;50.120;8.698;2023-10-13T08:55:10;21.70;99.90
1570;DHT22;778;50.120;8.698;2023-10-13T08:57:57;21.60;99.90
1570;DHT22;778;50.120;8.698;2023-10-13T09:00:31;21.50;99.90
1570;DHT22;778;50.120;8.698;2023-10-13T09:03:14;22.00;99.90
1570;DHT22;778;50.120;8.698;2023-10-13T09:05:56;22.70;99.90
1570;DHT22;778;50.120;8.698;2023-10-13T09:08:35;22.90;99.90
1570;DHT22;778;50.120;8.698;2023-10-13T09:11:11;22.60;99.90
1570;DHT22;778;50.120;8.698;2023-10-13T09:13:40;22.20;99.90
1570;DHT22;778;50.120;8.698;2023-10-13T09:16:15;22.10;99.90
1570;DHT22;778;50.120;8.698;2023-10-13T09:19:09;22.00;99.90
1570;DHT22;778;50.120;8.698;2023-10-13T09:21:39;22.20;99.90
1570;DHT22;778;50.120;8.698;2023-10-13T09:24:17;22.00;99.90
1570;DHT22;778;50.120;8.698;2023-10-13T09:26:54;22.10;99.90
1570;DHT22;778;50.120;8.698;2023-10-13T09:29:22;22.30;99.90
1570;DHT22;778;50.120;8.698;2023-10-13T09:32:02;22.20;99.90
1570;DHT22;778;50.120;8.698;2023-10-13T09:34:31;22.20;99.90
1570;DHT22;778;50.120;8.698;2023-10-13T09:37:07;21.90;99.90
1570;DHT22;778;50.120;8.698;2023-10-13T09:39:39;21.60;99.90
1570;DHT22;778;50.120;8.698;2023-10-13T09:42:15;21.70;99.90
1570;DHT22;778;50.120;8.698;2023-10-13T09:44:46;22.10;99.90
1570;DHT22;778;50.120;8.698;2023-10-13T09:47:28;22.30;99.90
1570;DHT22;778;50.120;8.698;2023-10-13T09:50:08;22.20;99.90
1570;DHT22;778;50.120;8.698;2023-10-13T09:52:50;22.10;99.90
1570;DHT22;778;50.120;8.698;2023-10-13T09:55:29;22.50;99.90
1570;DHT22;778;50.120;8.698;2023-10-13T09:58:03;22.70;99.90
1570;DHT22;778;50.120;8.698;2023-10-13T10:00:43;23.30;99.90
1570;DHT22;778;50.120;8.698;2023-10-13T10:03:15;23.90;99.90
1570;DHT22;778;50.120;8.698;2023-10-13T10:05:58;24.50;99.90
1570;DHT22;778;50.120;8.698;2023-10-13T10:08:33;24.70;99.90
1570;DHT22;778;50.120;8.698;2023-10-13T10:14:49;24.30;99.90
1570;DHT22;778;50.120;8.698;2023-10-13T10:17:28;24.20;99.90
1570;DHT22;778;50.120;8.698;2023-10-13T10:20:00;24.40;99.90
1570;DHT22;778;50.120;8.698;2023-10-13T10:22:33;24.70;99.90
1570;DHT22;778;50.120;8.698;2023-10-13T10:25:04;24.40;99.90
1570;DHT22;778;50.120;8.698;2023-10-13T10:27:56;24.80;99.90
1570;DHT22;778;50.120;8.698;2023-10-13T10:30:26;24.60;99.90
1570;DHT22;778;50.120;8.698;2023-10-13T10:32:55;24.50;99.90
1570;DHT22;778;50.120;8.698;2023-10-13T10:35:27;24.50;99.90
1570;DHT22;778;50.120;8.698;2023-10-13T10:38:07;24.50;99.90
1570;DHT22;778;50.120;8.698;2023-10-13T10:40:50;24.40;99.90
1570;DHT22;778;50.120;8.698;2023-10-13T10:43:26;24.50;99.90
1570;DHT22;778;50.120;8.698;2023-10-13T10:46:00;25.10;99.90
1570;DHT22;778;50.120;8.698;2023-10-13T10:48:31;25.40;99.90
1570;DHT22;778;50.120;8.698;2023-10-13T10:51:01;25.70;99.90
1570;DHT22;778;50.120;8.698;2023-10-13T10:53:41;25.30;99.90
1570;DHT22;778;50.120;8.698;2023-10-13T10:56:14;24.80;99.90
1570;DHT22;778;50.120;8.698;2023-10-13T10:58:55;24.40;99.90
1570;DHT22;778;50.120;8.698;2023-10-13T11:01:26;24.30;99.90
1570;DHT22;778;50.120;8.698;2023-10-13T11:04:03;24.20;99.90
1570;DHT22;778;50.120;8.698;2023-10-13T11:06:37;24.80;99.90
1570;DHT22;778;50.120;8.698;2023-10-13T11:09:09;25.00;99.90
1570;DHT22;778;50.120;8.698;2023-10-13T11:11:48;25.10;99.90
1570;DHT22;778;50.120;8.698;2023-10-13T11:14:22;25.30;99.90
1570;DHT22;778;50.120;8.698;2023-10-13T11:16:52;25.70;99.90
1570;DHT22;778;50.120;8.698;2023-10-13T11:19:33;26.10;99.90
1570;DHT22;778;50.120;8.698;2023-10-13T11:22:12;26.10;99.90
1570;DHT22;778;50.120;8.698;2023-10-13T11:24:57;25.90;99.90
1570;DHT22;778;50.120;8.698;2023-10-13T11:27:30;25.90;99.90
1570;DHT22;778;50.120;8.698;2023-10-13T11:30:26;26.00;99.90
1570;DHT22;778;50.120;8.698;2023-10-13T11:33:09;25.90;99.90
1570;DHT22;778;50.120;8.698;2023-10-13T11:35:39;26.00;99.90
1570;DHT22;778;50.120;8.698;2023-10-13T11:38:31;26.20;99.90
1570;DHT22;778;50.120;8.698;2023-10-13T11:41:10;26.10;99.90
1570;DHT22;778;50.120;8.698;2023-10-13T11:43:44;26.10;99.90
1570;DHT22;778;50.120;8.698;2023-10-13T11:46:40;26.20;99.90
1570;DHT22;778;50.120;8.698;2023-10-13T11:49:24;26.40;99.90
1570;DHT22;778;50.120;8.698;2023-10-13T11:52:04;26.30;99.90
1570;DHT22;778;50.120;8.698;2023-10-13T11:54:52;26.20;99.90
1570;DHT22;778;50.120;8.698;2023-10-13T11:57:20;26.30;99.90
1570;DHT22;778;50.120;8.698;2023-10-13T11:59:49;26.20;99.90
1570;DHT22;778;50.120;8.698;2023-10-13T12:02:48;26.10;99.90
1570;DHT22;778;50.120;8.698;2023-10-13T12:05:34;25.90;99.90
1570;DHT22;778;50.120;8.698;2023-10-13T12:08:16;25.70;99.90
1570;DHT22;778;50.120;8.698;2023-10-13T12:10:59;25.50;99.90
1570;DHT22;778;50.120;8.698;2023-10-13T12:13:48;25.50;99.90
1570;DHT22;778;50.120;8.698;2023-10-13T12:16:16;25.60;99.90
1570;DHT22;778;50.120;8.698;2023-10-13T12:18:47;25.80;99.90
1570;DHT22;778;50.120;8.698;2023-10-13T12:21:20;25.90;99.90
1570;DHT22;778;50.120;8.698;2023-10-13T12:23:49;26.10;99.90
1570;DHT22;778;50.120;8.698;2023-10-13T12:26:17;25.90;99.90
1570;DHT22;778;50.120;8.698;2023-10-13T12:28:47;25.60;99.90
1570;DHT22;778;50.120;8.698;2023-10-13T12:31:19;25.50;99.90
1570;DHT22;778;50.120;8.698;2023-10-13T12:33:55;25.40;99.90
1570;DHT22;778;50.120;8.698;2023-10-13T12:36:33;25.60;99.90
1570;DHT22;778;50.120;8.698;2023-10-13T12:39:08;25.60;99.90
1570;DHT22;778;50.120;8.698;2023-10-13T12:42:05;25.70;99.90
1570;DHT22;778;50.120;8.698;2023-10-13T12:44:51;25.60;99.90
1570;DHT22;778;50.120;8.698;2023-10-13T12:47:37;25.50;99.90
1570;DHT22;778;50.120;8.698;2023-10-13T12:50:24;25.30;99.90
1570;DHT22;778;50.120;8.698;2023-10-13T12:53:10;25.10;99.90
1570;DHT22;778;50.120;8.698;2023-10-13T12:55:41;25.10;99.90
1570;DHT22;778;50.120;8.698;2023-10-13T12:58:09;25.10;99.90
1570;DHT22;778;50.120;8.698;2023-10-13T13:00:38;25.10;99.90
1570;DHT22;778;50.120;8.698;2023-10-13T13:03:07;25.20;99.90
1570;DHT22;778;50.120;8.698;2023-10-13T13:05:40;25.10;99.90
1570;DHT22;778;50.120;8.698;2023-10-13T13:08:13;25.10;99.90
1570;DHT22;778;50.120;8.698;2023-10-13T13:10:49;25.00;99.90
1570;DHT22;778;50.120;8.698;2023-10-13T13:13:18;25.00;99.90
1570;DHT22;778;50.120;8.698;2023-10-13T13:15:51;25.00;99.90
1570;DHT22;778;50.120;8.698;2023-10-13T13:18:20;25.00;99.90
1570;DHT22;778;50.120;8.698;2023-10-13T13:20:50;25.10;99.90
1570;DHT22;778;50.120;8.698;2023-10-13T13:23:22;25.30;99.90
1570;DHT22;778;50.120;8.698;2023-10-13T13:25:54;25.30;99.90
1570;DHT22;778;50.120;8.698;2023-10-13T13:28:25;25.50;99.90
1570;DHT22;778;50.120;8.698;2023-10-13T13:30:56;25.60;99.90
1570;DHT22;778;50.120;8.698;2023-10-13T13:33:25;25.70;99.90
1570;DHT22;778;50.120;8.698;2023-10-13T13:35:58;25.70;99.90
1570;DHT22;778;50.120;8.698;2023-10-13T13:38:27;25.60;99.90
1570;DHT22;778;50.120;8.698;2023-10-13T13:40:59;25.50;99.90
1570;DHT22;778;50.120;8.698;2023-10-13T13:43:29;25.50;99.90
1570;DHT22;778;50.120;8.698;2023-10-13T13:46:06;25.60;99.90
1570;DHT22;778;50.120;8.698;2023-10-13T13:48:37;25.50;99.90
1570;DHT22;778;50.120;8.698;2023-10-13T13:51:09;25.60;99.90
1570;DHT22;778;50.120;8.698;2023-10-13T13:53:43;25.60;99.90
1570;DHT22;778;50.120;8.698;2023-10-13T13:56:15;25.70;99.90
1570;DHT22;778;50.120;8.698;2023-10-13T13:58:46;25.60;99.90
1570;DHT22;778;50.120;8.698;2023-10-13T14:01:16;25.60;99.90
1570;DHT22;778;50.120;8.698;2023-10-13T14:03:47;25.40;99.90
1570;DHT22;778;50.120;8.698;2023-10-13T14:06:20;25.40;99.90
1570;DHT22;778;50.120;8.698;2023-10-13T14:08:52;25.40;99.90
1570;DHT22;778;50.120;8.698;2023-10-13T14:11:24;25.30;99.90
1570;DHT22;778;50.120;8.698;2023-10-13T14:14:12;25.40;99.90
1570;DHT22;778;50.120;8.698;2023-10-13T14:16:56;25.30;99.90
1570;DHT22;778;50.120;8.698;2023-10-13T14:19:34;25.30;99.90
1570;DHT22;778;50.120;8.698;2023-10-13T14:22:09;25.30;99.90
1570;DHT22;778;50.120;8.698;2023-10-13T14:24:40;25.30;99.90
1570;DHT22;778;50.120;8.698;2023-10-13T14:27:18;25.30;99.90
1570;DHT22;778;50.120;8.698;2023-10-13T14:29:50;25.30;99.90
1570;DHT22;778;50.120;8.698;2023-10-13T14:32:21;25.30;99.90
1570;DHT22;778;50.120;8.698;2023-10-13T14:34:54;25.30;99.90
1570;DHT22;778;50.120;8.698;2023-10-13T14:37:25;25.20;99.90
1570;DHT22;778;50.120;8.698;2023-10-13T14:39:58;25.30;99.90
1570;DHT22;778;50.120;8.698;2023-10-13T14:42:28;25.30;99.90
1570;DHT22;778;50.120;8.698;2023-10-13T14:45:03;25.30;99.90
1570;DHT22;778;50.120;8.698;2023-10-13T14:47:39;25.20;99.90
1570;DHT22;778;50.120;8.698;2023-10-13T14:50:09;25.30;99.40
1570;DHT22;778;50.120;8.698;2023-10-13T14:52:45;25.30;99.20
1570;DHT22;778;50.120;8.698;2023-10-13T14:55:15;25.30;99.10
1570;DHT22;778;50.120;8.698;2023-10-13T14:57:47;25.20;98.70
1570;DHT22;778;50.120;8.698;2023-10-13T15:00:18;25.20;98.80
1570;DHT22;778;50.120;8.698;2023-10-13T15:02:53;25.10;98.50
1570;DHT22;778;50.120;8.698;2023-10-13T15:05:22;25.10;98.50
1570;DHT22;778;50.120;8.698;2023-10-13T15:07:52;25.10;98.30
1570;DHT22;778;50.120;8.698;2023-10-13T15:10:21;25.00;98.40
1570;DHT22;778;50.120;8.698;2023-10-13T15:12:51;25.00;98.20
1570;DHT22;778;50.120;8.698;2023-10-13T15:15:20;25.00;97.40
1570;DHT22;778;50.120;8.698;2023-10-13T15:17:48;25.00;97.20
1570;DHT22;778;50.120;8.698;2023-10-13T15:20:17;25.00;96.80
1570;DHT22;778;50.120;8.698;2023-10-13T15:22:46;24.90;96.50
1570;DHT22;778;50.120;8.698;2023-10-13T15:25:17;24.90;96.50
1570;DHT22;778;50.120;8.698;2023-10-13T15:27:57;24.80;96.70
1570;DHT22;778;50.120;8.698;2023-10-13T15:30:30;24.80;96.60
1570;DHT22;778;50.120;8.698;2023-10-13T15:33:11;24.90;96.30
1570;DHT22;778;50.120;8.698;2023-10-13T15:35:41;24.80;96.00
1570;DHT22;778;50.120;8.698;2023-10-13T15:38:12;24.80;94.80
1570;DHT22;778;50.120;8.698;2023-10-13T15:40:43;24.90;94.90
1570;DHT22;778;50.120;8.698;2023-10-13T15:43:12;24.80;94.90
1570;DHT22;778;50.120;8.698;2023-10-13T15:45:41;24.80;94.90
1570;DHT22;778;50.120;8.698;2023-10-13T15:48:10;24.70;94.90
1570;DHT22;778;50.120;8.698;2023-10-13T15:50:45;24.70;94.80
1570;DHT22;778;50.120;8.698;2023-10-13T15:53:17;24.60;94.90
1570;DHT22;778;50.120;8.698;2023-10-13T15:55:47;24.60;94.80
1570;DHT22;778;50.120;8.698;2023-10-13T15:58:15;24.60;94.70
1570;DHT22;778;50.120;8.698;2023-10-13T16:00:44;24.60;94.90
1570;DHT22;778;50.120;8.698;2023-10-13T16:03:15;24.50;94.90
1570;DHT22;778;50.120;8.698;2023-10-13T16:05:44;24.50;95.40
1570;DHT22;778;50.120;8.698;2023-10-13T16:08:14;24.40;96.00
1570;DHT22;778;50.120;8.698;2023-10-13T16:10:46;24.30;96.40
1570;DHT22;778;50.120;8.698;2023-10-13T16:13:16;24.30;96.20
1570;DHT22;778;50.120;8.698;2023-10-13T16:15:47;24.20;96.20
1570;DHT22;778;50.120;8.698;2023-10-13T16:18:15;24.20;96.50
1570;DHT22;778;50.120;8.698;2023-10-13T16:20:49;24.20;96.50
1570;DHT22;778;50.120;8.698;2023-10-13T16:23:19;24.00;96.60
1570;DHT22;778;50.120;8.698;2023-10-13T16:25:49;24.00;97.00
1570;DHT22;778;50.120;8.698;2023-10-13T16:28:17;24.00;97.00
1570;DHT22;778;50.120;8.698;2023-10-13T16:30:45;24.00;96.70
1570;DHT22;778;50.120;8.698;2023-10-13T16:33:14;23.90;96.80
1570;DHT22;778;50.120;8.698;2023-10-13T16:35:44;23.90;96.80
1570;DHT22;778;50.120;8.698;2023-10-13T16:38:14;23.90;96.60
1570;DHT22;778;50.120;8.698;2023-10-13T16:40:42;23.80;96.80
1570;DHT22;778;50.120;8.698;2023-10-13T16:43:12;23.70;97.30
1570;DHT22;778;50.120;8.698;2023-10-13T16:45:41;23.70;97.20
1570;DHT22;778;50.120;8.698;2023-10-13T16:48:12;23.70;97.60
1570;DHT22;778;50.120;8.698;2023-10-13T16:50:41;23.70;98.70
1570;DHT22;778;50.120;8.698;2023-10-13T16:53:11;23.60;98.30
1570;DHT22;778;50.120;8.698;2023-10-13T16:55:39;23.60;98.30
1570;DHT22;778;50.120;8.698;2023-10-13T16:58:11;23.50;99.70
1570;DHT22;778;50.120;8.698;2023-10-13T17:00:40;23.50;99.40
1570;DHT22;778;50.120;8.698;2023-10-13T17:03:12;23.50;99.30
1570;DHT22;778;50.120;8.698;2023-10-13T17:05:41;23.40;99.30
1570;DHT22;778;50.120;8.698;2023-10-13T17:08:10;23.30;99.90
1570;DHT22;778;50.120;8.698;2023-10-13T17:10:40;23.30;99.80
1570;DHT22;778;50.120;8.698;2023-10-13T17:13:09;23.40;99.70
1570;DHT22;778;50.120;8.698;2023-10-13T17:15:39;23.30;99.50
1570;DHT22;778;50.120;8.698;2023-10-13T17:18:07;23.30;99.90